sensor_id;sensor_type;location;lat;lon;timestamp;P1;durP1;ratioP1;P2;durP2;ratioP2
58302;SDS011;44109;52.398;7.024;2022-07-22T00:00:35;3.50;;;2.00;;
58302;SDS011;44109;52.398;7.024;2022-07-22T00:03:04;3.72;;;1.90;;
58302;SDS011;44109;52.398;7.024;2022-07-22T00:05:31;4.75;;;2.22;;
58302;SDS011;44109;52.398;7.024;2022-07-22T00:07:59;5.53;;;1.90;;
58302;SDS011;44109;52.398;7.024;2022-07-22T00:10:27;3.30;;;2.03;;
58302;SDS011;44109;52.398;7.024;2022-07-22T00:12:54;5.82;;;2.60;;
58302;SDS011;44109;52.398;7.024;2022-07-22T00:15:22;3.38;;;2.35;;
58302;SDS011;44109;52.398;7.024;2022-07-22T00:17:49;7.35;;;2.47;;
58302;SDS011;44109;52.398;7.024;2022-07-22T00:20:18;3.90;;;2.13;;
58302;SDS011;44109;52.398;7.024;2022-07-22T00:22:46;5.07;;;2.60;;
58302;SDS011;44109;52.398;7.024;2022-07-22T00:25:13;4.35;;;2.60;;
58302;SDS011;44109;52.398;7.024;2022-07-22T00:27:41;4.50;;;2.50;;
58302;SDS011;44109;52.398;7.024;2022-07-22T00:30:09;3.65;;;2.30;;
58302;SDS011;44109;52.398;7.024;2022-07-22T00:32:38;4.63;;;2.15;;
58302;SDS011;44109;52.398;7.024;2022-07-22T00:35:06;6.13;;;2.60;;
58302;SDS011;44109;52.398;7.024;2022-07-22T00:37:36;4.35;;;2.10;;
58302;SDS011;44109;52.398;7.024;2022-07-22T00:40:04;4.20;;;2.22;;
58302;SDS011;44109;52.398;7.024;2022-07-22T00:42:32;6.03;;;3.20;;
58302;SDS011;44109;52.398;7.024;2022-07-22T00:45:00;4.30;;;2.53;;
58302;SDS011;44109;52.398;7.024;2022-07-22T00:47:29;3.85;;;2.67;;
58302;SDS011;44109;52.398;7.024;2022-07-22T00:49:56;5.22;;;2.72;;
58302;SDS011;44109;52.398;7.024;2022-07-22T00:52:24;6.35;;;2.97;;
58302;SDS011;44109;52.398;7.024;2022-07-22T00:54:53;3.13;;;1.83;;
58302;SDS011;44109;52.398;7.024;2022-07-22T00:57:22;5.95;;;2.53;;
58302;SDS011;44109;52.398;7.024;2022-07-22T00:59:50;4.38;;;2.30;;
58302;SDS011;44109;52.398;7.024;2022-07-22T01:02:18;7.75;;;2.78;;
58302;SDS011;44109;52.398;7.024;2022-07-22T01:04:45;4.75;;;3.08;;
58302;SDS011;44109;52.398;7.024;2022-07-22T01:07:13;6.50;;;2.30;;
58302;SDS011;44109;52.398;7.024;2022-07-22T01:09:42;6.95;;;2.63;;
58302;SDS011;44109;52.398;7.024;2022-07-22T01:12:11;8.05;;;2.97;;
58302;SDS011;44109;52.398;7.024;2022-07-22T01:14:40;6.13;;;3.00;;
58302;SDS011;44109;52.398;7.024;2022-07-22T01:17:08;4.72;;;2.28;;
58302;SDS011;44109;52.398;7.024;2022-07-22T01:19:35;9.85;;;3.22;;
58302;SDS011;44109;52.398;7.024;2022-07-22T01:22:05;5.20;;;2.63;;
58302;SDS011;44109;52.398;7.024;2022-07-22T01:24:33;8.88;;;2.92;;
58302;SDS011;44109;52.398;7.024;2022-07-22T01:27:02;5.93;;;2.50;;
58302;SDS011;44109;52.398;7.024;2022-07-22T01:29:29;5.43;;;2.38;;
58302;SDS011;44109;52.398;7.024;2022-07-22T01:31:57;8.60;;;3.03;;
58302;SDS011;44109;52.398;7.024;2022-07-22T01:34:26;10.15;;;3.45;;
58302;SDS011;44109;52.398;7.024;2022-07-22T01:36:53;6.50;;;2.50;;
58302;SDS011;44109;52.398;7.024;2022-07-22T01:39:22;5.85;;;2.88;;
58302;SDS011;44109;52.398;7.024;2022-07-22T01:41:50;6.32;;;2.60;;
58302;SDS011;44109;52.398;7.024;2022-07-22T01:44:17;6.93;;;2.50;;
58302;SDS011;44109;52.398;7.024;2022-07-22T01:46:45;4.68;;;2.15;;
58302;SDS011;44109;52.398;7.024;2022-07-22T01:49:12;5.57;;;2.30;;
58302;SDS011;44109;52.398;7.024;2022-07-22T01:51:40;5.75;;;3.20;;
58302;SDS011;44109;52.398;7.024;2022-07-22T01:54:08;6.13;;;2.33;;
58302;SDS011;44109;52.398;7.024;2022-07-22T01:56:37;5.70;;;2.30;;
58302;SDS011;44109;52.398;7.024;2022-07-22T01:59:04;5.85;;;2.63;;
58302;SDS011;44109;52.398;7.024;2022-07-22T02:01:33;6.28;;;2.88;;
58302;SDS011;44109;52.398;7.024;2022-07-22T02:04:00;8.48;;;3.15;;
58302;SDS011;44109;52.398;7.024;2022-07-22T02:06:28;5.78;;;2.65;;
58302;SDS011;44109;52.398;7.024;2022-07-22T02:08:56;5.45;;;2.60;;
58302;SDS011;44109;52.398;7.024;2022-07-22T02:11:24;3.88;;;2.38;;
58302;SDS011;44109;52.398;7.024;2022-07-22T02:13:53;5.47;;;2.05;;
58302;SDS011;44109;52.398;7.024;2022-07-22T02:16:21;7.10;;;2.50;;
58302;SDS011;44109;52.398;7.024;2022-07-22T02:18:48;7.88;;;2.83;;
58302;SDS011;44109;52.398;7.024;2022-07-22T02:21:16;6.28;;;2.55;;
58302;SDS011;44109;52.398;7.024;2022-07-22T02:23:44;5.35;;;2.17;;
58302;SDS011;44109;52.398;7.024;2022-07-22T02:26:11;15.38;;;2.88;;
58302;SDS011;44109;52.398;7.024;2022-07-22T02:28:39;5.03;;;2.63;;
58302;SDS011;44109;52.398;7.024;2022-07-22T02:31:08;6.45;;;2.63;;
58302;SDS011;44109;52.398;7.024;2022-07-22T02:33:35;4.68;;;2.30;;
58302;SDS011;44109;52.398;7.024;2022-07-22T02:36:03;4.75;;;2.63;;
58302;SDS011;44109;52.398;7.024;2022-07-22T02:38:31;5.32;;;2.58;;
58302;SDS011;44109;52.398;7.024;2022-07-22T02:40:59;6.40;;;2.50;;
58302;SDS011;44109;52.398;7.024;2022-07-22T02:43:26;7.22;;;2.42;;
58302;SDS011;44109;52.398;7.024;2022-07-22T02:45:54;8.27;;;3.22;;
58302;SDS011;44109;52.398;7.024;2022-07-22T02:48:23;4.38;;;2.28;;
58302;SDS011;44109;52.398;7.024;2022-07-22T02:50:50;4.63;;;2.10;;
58302;SDS011;44109;52.398;7.024;2022-07-22T02:53:18;7.30;;;2.75;;
58302;SDS011;44109;52.398;7.024;2022-07-22T02:55:45;6.20;;;2.25;;
58302;SDS011;44109;52.398;7.024;2022-07-22T02:58:13;2.63;;;1.77;;
58302;SDS011;44109;52.398;7.024;2022-07-22T03:00:40;4.40;;;2.00;;
58302;SDS011;44109;52.398;7.024;2022-07-22T03:03:08;8.00;;;2.25;;
58302;SDS011;44109;52.398;7.024;2022-07-22T03:05:37;5.15;;;2.35;;
58302;SDS011;44109;52.398;7.024;2022-07-22T03:08:04;7.40;;;2.67;;
58302;SDS011;44109;52.398;7.024;2022-07-22T03:10:32;6.60;;;2.95;;
58302;SDS011;44109;52.398;7.024;2022-07-22T03:13:00;5.30;;;2.35;;
58302;SDS011;44109;52.398;7.024;2022-07-22T03:15:27;7.70;;;3.05;;
58302;SDS011;44109;52.398;7.024;2022-07-22T03:17:55;8.18;;;2.92;;
58302;SDS011;44109;52.398;7.024;2022-07-22T03:20:22;4.93;;;2.83;;
58302;SDS011;44109;52.398;7.024;2022-07-22T03:22:51;3.70;;;2.40;;
58302;SDS011;44109;52.398;7.024;2022-07-22T03:25:19;5.05;;;2.20;;
58302;SDS011;44109;52.398;7.024;2022-07-22T03:27:46;7.00;;;2.25;;
58302;SDS011;44109;52.398;7.024;2022-07-22T03:30:14;3.90;;;2.60;;
58302;SDS011;44109;52.398;7.024;2022-07-22T03:32:41;6.10;;;3.00;;
58302;SDS011;44109;52.398;7.024;2022-07-22T03:35:10;8.43;;;2.25;;
58302;SDS011;44109;52.398;7.024;2022-07-22T03:37:38;5.30;;;2.63;;
58302;SDS011;44109;52.398;7.024;2022-07-22T03:40:08;6.18;;;2.53;;
58302;SDS011;44109;52.398;7.024;2022-07-22T03:42:37;3.75;;;2.53;;
58302;SDS011;44109;52.398;7.024;2022-07-22T03:45:05;7.30;;;2.78;;
58302;SDS011;44109;52.398;7.024;2022-07-22T03:47:34;5.53;;;2.33;;
58302;SDS011;44109;52.398;7.024;2022-07-22T03:50:02;5.05;;;3.15;;
58302;SDS011;44109;52.398;7.024;2022-07-22T03:52:30;7.03;;;2.33;;
58302;SDS011;44109;52.398;7.024;2022-07-22T03:54:58;5.65;;;2.58;;
58302;SDS011;44109;52.398;7.024;2022-07-22T03:57:27;4.47;;;2.88;;
58302;SDS011;44109;52.398;7.024;2022-07-22T03:59:55;5.05;;;2.28;;
58302;SDS011;44109;52.398;7.024;2022-07-22T04:02:22;6.72;;;2.25;;
58302;SDS011;44109;52.398;7.024;2022-07-22T04:04:49;6.60;;;2.97;;
58302;SDS011;44109;52.398;7.024;2022-07-22T04:07:17;6.07;;;3.22;;
58302;SDS011;44109;52.398;7.024;2022-07-22T04:09:45;4.65;;;2.45;;
58302;SDS011;44109;52.398;7.024;2022-07-22T04:12:12;5.28;;;2.47;;
58302;SDS011;44109;52.398;7.024;2022-07-22T04:14:41;4.10;;;2.42;;
58302;SDS011;44109;52.398;7.024;2022-07-22T04:17:08;6.03;;;2.50;;
58302;SDS011;44109;52.398;7.024;2022-07-22T04:19:36;8.80;;;2.85;;
58302;SDS011;44109;52.398;7.024;2022-07-22T04:22:03;4.43;;;3.03;;
58302;SDS011;44109;52.398;7.024;2022-07-22T04:24:31;9.48;;;2.65;;
58302;SDS011;44109;52.398;7.024;2022-07-22T04:26:58;7.50;;;2.70;;
58302;SDS011;44109;52.398;7.024;2022-07-22T04:29:26;8.23;;;2.15;;
58302;SDS011;44109;52.398;7.024;2022-07-22T04:31:55;5.15;;;2.70;;
58302;SDS011;44109;52.398;7.024;2022-07-22T04:34:22;5.43;;;2.45;;
58302;SDS011;44109;52.398;7.024;2022-07-22T04:36:50;9.32;;;2.85;;
58302;SDS011;44109;52.398;7.024;2022-07-22T04:39:17;3.80;;;2.72;;
58302;SDS011;44109;52.398;7.024;2022-07-22T04:41:45;5.72;;;2.22;;
58302;SDS011;44109;52.398;7.024;2022-07-22T04:44:13;3.60;;;1.80;;
58302;SDS011;44109;52.398;7.024;2022-07-22T04:46:40;4.47;;;2.33;;
58302;SDS011;44109;52.398;7.024;2022-07-22T04:49:09;5.82;;;2.60;;
58302;SDS011;44109;52.398;7.024;2022-07-22T04:51:37;5.88;;;2.25;;
58302;SDS011;44109;52.398;7.024;2022-07-22T04:54:04;5.10;;;2.25;;
58302;SDS011;44109;52.398;7.024;2022-07-22T04:56:32;6.40;;;1.88;;
58302;SDS011;44109;52.398;7.024;2022-07-22T04:58:59;4.68;;;2.15;;
58302;SDS011;44109;52.398;7.024;2022-07-22T05:01:27;4.22;;;2.50;;
58302;SDS011;44109;52.398;7.024;2022-07-22T05:03:54;7.18;;;2.25;;
58302;SDS011;44109;52.398;7.024;2022-07-22T05:06:23;5.38;;;2.10;;
58302;SDS011;44109;52.398;7.024;2022-07-22T05:08:51;4.70;;;2.22;;
58302;SDS011;44109;52.398;7.024;2022-07-22T05:11:18;4.35;;;2.10;;
58302;SDS011;44109;52.398;7.024;2022-07-22T05:13:46;5.38;;;2.42;;
58302;SDS011;44109;52.398;7.024;2022-07-22T05:16:14;4.90;;;1.88;;
58302;SDS011;44109;52.398;7.024;2022-07-22T05:18:41;4.28;;;2.30;;
58302;SDS011;44109;52.398;7.024;2022-07-22T05:21:09;6.55;;;2.67;;
58302;SDS011;44109;52.398;7.024;2022-07-22T05:23:38;5.90;;;2.22;;
58302;SDS011;44109;52.398;7.024;2022-07-22T05:26:05;3.22;;;1.90;;
58302;SDS011;44109;52.398;7.024;2022-07-22T05:28:33;6.63;;;2.40;;
58302;SDS011;44109;52.398;7.024;2022-07-22T05:31:01;5.05;;;1.90;;
58302;SDS011;44109;52.398;7.024;2022-07-22T05:33:28;5.28;;;2.35;;
58302;SDS011;44109;52.398;7.024;2022-07-22T05:35:56;5.30;;;2.42;;
58302;SDS011;44109;52.398;7.024;2022-07-22T05:38:24;4.00;;;2.58;;
58302;SDS011;44109;52.398;7.024;2022-07-22T05:40:53;3.35;;;1.52;;
58302;SDS011;44109;52.398;7.024;2022-07-22T05:43:21;5.75;;;1.90;;
58302;SDS011;44109;52.398;7.024;2022-07-22T05:45:48;3.92;;;1.80;;
58302;SDS011;44109;52.398;7.024;2022-07-22T05:48:16;4.50;;;2.20;;
58302;SDS011;44109;52.398;7.024;2022-07-22T05:50:43;5.30;;;2.10;;
58302;SDS011;44109;52.398;7.024;2022-07-22T05:53:11;5.75;;;1.70;;
58302;SDS011;44109;52.398;7.024;2022-07-22T05:55:38;3.70;;;1.88;;
58302;SDS011;44109;52.398;7.024;2022-07-22T05:58:07;5.80;;;1.90;;
58302;SDS011;44109;52.398;7.024;2022-07-22T06:00:35;3.22;;;1.40;;
58302;SDS011;44109;52.398;7.024;2022-07-22T06:03:02;4.40;;;1.67;;
58302;SDS011;44109;52.398;7.024;2022-07-22T06:05:30;3.42;;;1.40;;
58302;SDS011;44109;52.398;7.024;2022-07-22T06:07:57;2.50;;;1.48;;
58302;SDS011;44109;52.398;7.024;2022-07-22T06:10:25;3.40;;;1.65;;
58302;SDS011;44109;52.398;7.024;2022-07-22T06:12:52;3.30;;;1.85;;
58302;SDS011;44109;52.398;7.024;2022-07-22T06:15:21;2.97;;;1.50;;
58302;SDS011;44109;52.398;7.024;2022-07-22T06:17:49;6.20;;;2.17;;
58302;SDS011;44109;52.398;7.024;2022-07-22T06:20:17;8.98;;;1.90;;
58302;SDS011;44109;52.398;7.024;2022-07-22T06:22:44;4.93;;;1.60;;
58302;SDS011;44109;52.398;7.024;2022-07-22T06:25:12;4.60;;;1.90;;
58302;SDS011;44109;52.398;7.024;2022-07-22T06:27:40;2.92;;;1.42;;
58302;SDS011;44109;52.398;7.024;2022-07-22T06:30:08;2.97;;;1.77;;
58302;SDS011;44109;52.398;7.024;2022-07-22T06:32:38;3.13;;;1.65;;
58302;SDS011;44109;52.398;7.024;2022-07-22T06:35:06;4.70;;;1.40;;
58302;SDS011;44109;52.398;7.024;2022-07-22T06:37:35;4.43;;;1.65;;
58302;SDS011;44109;52.398;7.024;2022-07-22T06:40:03;5.78;;;2.15;;
58302;SDS011;44109;52.398;7.024;2022-07-22T06:42:32;3.75;;;1.20;;
58302;SDS011;44109;52.398;7.024;2022-07-22T06:44:59;5.47;;;1.60;;
58302;SDS011;44109;52.398;7.024;2022-07-22T06:47:27;2.47;;;1.77;;
58302;SDS011;44109;52.398;7.024;2022-07-22T06:49:56;4.45;;;1.50;;
58302;SDS011;44109;52.398;7.024;2022-07-22T06:52:23;4.13;;;1.25;;
58302;SDS011;44109;52.398;7.024;2022-07-22T06:54:51;5.20;;;1.45;;
58302;SDS011;44109;52.398;7.024;2022-07-22T06:57:18;2.38;;;1.27;;
58302;SDS011;44109;52.398;7.024;2022-07-22T06:59:46;3.38;;;1.33;;
58302;SDS011;44109;52.398;7.024;2022-07-22T07:02:13;4.07;;;1.45;;
58302;SDS011;44109;52.398;7.024;2022-07-22T07:04:41;2.65;;;1.20;;
58302;SDS011;44109;52.398;7.024;2022-07-22T07:07:10;2.92;;;1.23;;
58302;SDS011;44109;52.398;7.024;2022-07-22T07:09:38;5.03;;;1.40;;
58302;SDS011;44109;52.398;7.024;2022-07-22T07:12:06;2.90;;;1.10;;
58302;SDS011;44109;52.398;7.024;2022-07-22T07:14:34;2.83;;;1.58;;
58302;SDS011;44109;52.398;7.024;2022-07-22T07:17:02;3.58;;;1.30;;
58302;SDS011;44109;52.398;7.024;2022-07-22T07:19:29;3.15;;;1.20;;
58302;SDS011;44109;52.398;7.024;2022-07-22T07:21:57;2.95;;;1.20;;
58302;SDS011;44109;52.398;7.024;2022-07-22T07:24:26;4.20;;;1.20;;
58302;SDS011;44109;52.398;7.024;2022-07-22T07:26:53;2.67;;;0.95;;
58302;SDS011;44109;52.398;7.024;2022-07-22T07:29:21;4.95;;;1.77;;
58302;SDS011;44109;52.398;7.024;2022-07-22T07:31:49;3.80;;;1.48;;
58302;SDS011;44109;52.398;7.024;2022-07-22T07:34:16;3.00;;;1.10;;
58302;SDS011;44109;52.398;7.024;2022-07-22T07:36:44;5.47;;;1.50;;
58302;SDS011;44109;52.398;7.024;2022-07-22T07:39:12;1.83;;;1.08;;
58302;SDS011;44109;52.398;7.024;2022-07-22T07:41:41;2.47;;;0.95;;
58302;SDS011;44109;52.398;7.024;2022-07-22T07:44:08;2.10;;;0.90;;
58302;SDS011;44109;52.398;7.024;2022-07-22T07:46:36;3.22;;;1.20;;
58302;SDS011;44109;52.398;7.024;2022-07-22T07:49:03;2.85;;;1.25;;
58302;SDS011;44109;52.398;7.024;2022-07-22T07:51:31;3.75;;;1.50;;
58302;SDS011;44109;52.398;7.024;2022-07-22T07:53:58;4.05;;;1.20;;
58302;SDS011;44109;52.398;7.024;2022-07-22T07:56:26;3.90;;;1.20;;
58302;SDS011;44109;52.398;7.024;2022-07-22T07:58:55;2.22;;;1.00;;
58302;SDS011;44109;52.398;7.024;2022-07-22T08:01:22;4.40;;;1.40;;
58302;SDS011;44109;52.398;7.024;2022-07-22T08:03:50;5.05;;;1.70;;
58302;SDS011;44109;52.398;7.024;2022-07-22T08:06:17;5.47;;;1.50;;
58302;SDS011;44109;52.398;7.024;2022-07-22T08:08:45;3.28;;;1.52;;
58302;SDS011;44109;52.398;7.024;2022-07-22T08:11:12;3.10;;;1.08;;
58302;SDS011;44109;52.398;7.024;2022-07-22T08:13:40;3.30;;;1.02;;
58302;SDS011;44109;52.398;7.024;2022-07-22T08:16:09;5.88;;;1.48;;
58302;SDS011;44109;52.398;7.024;2022-07-22T08:18:37;2.72;;;1.40;;
58302;SDS011;44109;52.398;7.024;2022-07-22T08:21:06;6.82;;;1.38;;
58302;SDS011;44109;52.398;7.024;2022-07-22T08:23:33;2.95;;;1.38;;
58302;SDS011;44109;52.398;7.024;2022-07-22T08:26:01;2.42;;;1.25;;
58302;SDS011;44109;52.398;7.024;2022-07-22T08:28:29;2.80;;;1.10;;
58302;SDS011;44109;52.398;7.024;2022-07-22T08:30:56;1.85;;;1.00;;
58302;SDS011;44109;52.398;7.024;2022-07-22T08:33:25;3.13;;;1.05;;
58302;SDS011;44109;52.398;7.024;2022-07-22T08:35:53;2.47;;;1.33;;
58302;SDS011;44109;52.398;7.024;2022-07-22T08:38:20;3.67;;;1.30;;
58302;SDS011;44109;52.398;7.024;2022-07-22T08:40:48;1.90;;;1.30;;
58302;SDS011;44109;52.398;7.024;2022-07-22T08:43:16;4.00;;;1.27;;
58302;SDS011;44109;52.398;7.024;2022-07-22T08:45:43;4.22;;;1.02;;
58302;SDS011;44109;52.398;7.024;2022-07-22T08:48:12;2.10;;;1.00;;
58302;SDS011;44109;52.398;7.024;2022-07-22T08:50:41;3.95;;;1.17;;
58302;SDS011;44109;52.398;7.024;2022-07-22T08:53:09;4.18;;;1.58;;
58302;SDS011;44109;52.398;7.024;2022-07-22T08:55:42;2.40;;;1.10;;
58302;SDS011;44109;52.398;7.024;2022-07-22T08:58:10;3.70;;;1.60;;
58302;SDS011;44109;52.398;7.024;2022-07-22T09:00:38;2.20;;;1.25;;
58302;SDS011;44109;52.398;7.024;2022-07-22T09:03:19;6.10;;;1.52;;
58302;SDS011;44109;52.398;7.024;2022-07-22T09:05:50;3.65;;;1.85;;
58302;SDS011;44109;52.398;7.024;2022-07-22T09:08:18;3.95;;;1.25;;
58302;SDS011;44109;52.398;7.024;2022-07-22T09:10:46;3.03;;;1.23;;
58302;SDS011;44109;52.398;7.024;2022-07-22T09:13:14;4.10;;;1.25;;
58302;SDS011;44109;52.398;7.024;2022-07-22T09:15:47;2.92;;;1.38;;
58302;SDS011;44109;52.398;7.024;2022-07-22T09:18:18;1.95;;;1.10;;
58302;SDS011;44109;52.398;7.024;2022-07-22T09:20:45;2.50;;;1.30;;
58302;SDS011;44109;52.398;7.024;2022-07-22T09:23:15;3.00;;;1.60;;
58302;SDS011;44109;52.398;7.024;2022-07-22T09:25:47;4.30;;;1.30;;
58302;SDS011;44109;52.398;7.024;2022-07-22T09:28:16;3.10;;;1.50;;
58302;SDS011;44109;52.398;7.024;2022-07-22T09:30:48;2.33;;;1.10;;
58302;SDS011;44109;52.398;7.024;2022-07-22T09:33:19;4.18;;;1.17;;
58302;SDS011;44109;52.398;7.024;2022-07-22T09:35:48;2.75;;;1.20;;
58302;SDS011;44109;52.398;7.024;2022-07-22T09:38:19;3.20;;;1.38;;
58302;SDS011;44109;52.398;7.024;2022-07-22T09:40:55;2.83;;;1.10;;
58302;SDS011;44109;52.398;7.024;2022-07-22T09:43:23;5.40;;;1.60;;
58302;SDS011;44109;52.398;7.024;2022-07-22T09:45:55;2.25;;;1.10;;
58302;SDS011;44109;52.398;7.024;2022-07-22T09:48:24;1.60;;;0.85;;
58302;SDS011;44109;52.398;7.024;2022-07-22T09:50:53;3.78;;;1.25;;
58302;SDS011;44109;52.398;7.024;2022-07-22T09:53:25;1.50;;;0.82;;
58302;SDS011;44109;52.398;7.024;2022-07-22T09:55:55;2.83;;;1.43;;
58302;SDS011;44109;52.398;7.024;2022-07-22T09:58:23;3.17;;;1.40;;
58302;SDS011;44109;52.398;7.024;2022-07-22T10:00:52;2.88;;;1.27;;
58302;SDS011;44109;52.398;7.024;2022-07-22T10:03:23;1.98;;;1.15;;
58302;SDS011;44109;52.398;7.024;2022-07-22T10:05:54;2.53;;;1.20;;
58302;SDS011;44109;52.398;7.024;2022-07-22T10:08:26;1.80;;;1.10;;
58302;SDS011;44109;52.398;7.024;2022-07-22T10:10:58;2.75;;;0.95;;
58302;SDS011;44109;52.398;7.024;2022-07-22T10:13:29;4.85;;;1.10;;
58302;SDS011;44109;52.398;7.024;2022-07-22T10:16:00;3.58;;;1.15;;
58302;SDS011;44109;52.398;7.024;2022-07-22T10:18:28;2.45;;;1.17;;
58302;SDS011;44109;52.398;7.024;2022-07-22T10:21:01;2.75;;;1.25;;
58302;SDS011;44109;52.398;7.024;2022-07-22T10:23:34;3.70;;;1.45;;
58302;SDS011;44109;52.398;7.024;2022-07-22T10:26:03;2.28;;;1.10;;
58302;SDS011;44109;52.398;7.024;2022-07-22T10:28:33;3.65;;;1.38;;
58302;SDS011;44109;52.398;7.024;2022-07-22T10:31:18;2.33;;;1.20;;
58302;SDS011;44109;52.398;7.024;2022-07-22T10:33:50;2.72;;;1.30;;
58302;SDS011;44109;52.398;7.024;2022-07-22T10:36:29;2.95;;;1.45;;
58302;SDS011;44109;52.398;7.024;2022-07-22T10:39:04;2.58;;;0.80;;
58302;SDS011;44109;52.398;7.024;2022-07-22T10:41:36;1.80;;;0.98;;
58302;SDS011;44109;52.398;7.024;2022-07-22T10:44:05;2.45;;;1.08;;
58302;SDS011;44109;52.398;7.024;2022-07-22T10:49:24;2.58;;;1.30;;
58302;SDS011;44109;52.398;7.024;2022-07-22T10:52:09;2.80;;;1.10;;
58302;SDS011;44109;52.398;7.024;2022-07-22T10:57:47;2.17;;;1.08;;
58302;SDS011;44109;52.398;7.024;2022-07-22T11:00:15;3.10;;;1.17;;
58302;SDS011;44109;52.398;7.024;2022-07-22T11:02:43;1.92;;;1.00;;
58302;SDS011;44109;52.398;7.024;2022-07-22T11:05:11;2.17;;;1.30;;
58302;SDS011;44109;52.398;7.024;2022-07-22T11:07:41;3.75;;;1.08;;
58302;SDS011;44109;52.398;7.024;2022-07-22T11:10:09;1.73;;;0.90;;
58302;SDS011;44109;52.398;7.024;2022-07-22T11:12:40;3.53;;;0.90;;
58302;SDS011;44109;52.398;7.024;2022-07-22T11:15:09;2.90;;;1.20;;
58302;SDS011;44109;52.398;7.024;2022-07-22T11:17:38;4.00;;;1.25;;
58302;SDS011;44109;52.398;7.024;2022-07-22T11:20:07;1.48;;;1.00;;
58302;SDS011;44109;52.398;7.024;2022-07-22T11:22:38;2.47;;;1.00;;
58302;SDS011;44109;52.398;7.024;2022-07-22T11:25:08;1.45;;;1.00;;
58302;SDS011;44109;52.398;7.024;2022-07-22T11:27:38;1.60;;;1.13;;
58302;SDS011;44109;52.398;7.024;2022-07-22T11:30:07;2.08;;;1.27;;
58302;SDS011;44109;52.398;7.024;2022-07-22T11:32:41;1.70;;;0.90;;
58302;SDS011;44109;52.398;7.024;2022-07-22T11:35:10;3.30;;;1.25;;
58302;SDS011;44109;52.398;7.024;2022-07-22T11:37:38;3.72;;;1.35;;
58302;SDS011;44109;52.398;7.024;2022-07-22T11:40:07;2.25;;;1.13;;
58302;SDS011;44109;52.398;7.024;2022-07-22T11:42:37;1.52;;;0.90;;
58302;SDS011;44109;52.398;7.024;2022-07-22T11:45:05;3.13;;;1.17;;
58302;SDS011;44109;52.398;7.024;2022-07-22T11:47:34;1.90;;;1.00;;
58302;SDS011;44109;52.398;7.024;2022-07-22T11:50:02;1.75;;;0.80;;
58302;SDS011;44109;52.398;7.024;2022-07-22T11:52:30;2.22;;;1.10;;
58302;SDS011;44109;52.398;7.024;2022-07-22T11:54:58;2.20;;;0.80;;
58302;SDS011;44109;52.398;7.024;2022-07-22T11:57:25;1.67;;;0.85;;
58302;SDS011;44109;52.398;7.024;2022-07-22T11:59:53;4.05;;;1.10;;
58302;SDS011;44109;52.398;7.024;2022-07-22T12:02:22;2.58;;;1.10;;
58302;SDS011;44109;52.398;7.024;2022-07-22T12:04:50;1.67;;;0.82;;
58302;SDS011;44109;52.398;7.024;2022-07-22T12:07:19;3.92;;;1.52;;
58302;SDS011;44109;52.398;7.024;2022-07-22T12:09:46;1.85;;;1.02;;
58302;SDS011;44109;52.398;7.024;2022-07-22T12:12:14;2.05;;;0.73;;
58302;SDS011;44109;52.398;7.024;2022-07-22T12:14:44;2.90;;;1.27;;
58302;SDS011;44109;52.398;7.024;2022-07-22T12:17:14;1.70;;;1.00;;
58302;SDS011;44109;52.398;7.024;2022-07-22T12:19:43;1.58;;;0.90;;
58302;SDS011;44109;52.398;7.024;2022-07-22T12:22:11;3.35;;;1.40;;
58302;SDS011;44109;52.398;7.024;2022-07-22T12:24:55;2.78;;;1.17;;
58302;SDS011;44109;52.398;7.024;2022-07-22T12:27:27;3.08;;;1.30;;
58302;SDS011;44109;52.398;7.024;2022-07-22T12:29:55;3.63;;;1.27;;
58302;SDS011;44109;52.398;7.024;2022-07-22T12:32:24;2.85;;;0.90;;
58302;SDS011;44109;52.398;7.024;2022-07-22T12:34:56;3.80;;;1.40;;
58302;SDS011;44109;52.398;7.024;2022-07-22T12:37:27;2.83;;;1.13;;
58302;SDS011;44109;52.398;7.024;2022-07-22T12:39:58;3.28;;;1.17;;
58302;SDS011;44109;52.398;7.024;2022-07-22T12:42:29;3.95;;;1.20;;
58302;SDS011;44109;52.398;7.024;2022-07-22T12:45:00;3.90;;;1.33;;
58302;SDS011;44109;52.398;7.024;2022-07-22T12:47:41;1.73;;;1.10;;
58302;SDS011;44109;52.398;7.024;2022-07-22T12:50:26;5.40;;;2.17;;
58302;SDS011;44109;52.398;7.024;2022-07-22T12:52:58;2.22;;;1.02;;
58302;SDS011;44109;52.398;7.024;2022-07-22T12:55:28;3.13;;;1.25;;
58302;SDS011;44109;52.398;7.024;2022-07-22T12:57:56;4.78;;;1.55;;
58302;SDS011;44109;52.398;7.024;2022-07-22T13:00:25;3.13;;;1.25;;
58302;SDS011;44109;52.398;7.024;2022-07-22T13:02:55;2.22;;;1.20;;
58302;SDS011;44109;52.398;7.024;2022-07-22T13:05:24;2.88;;;0.98;;
58302;SDS011;44109;52.398;7.024;2022-07-22T13:07:54;4.15;;;1.13;;
58302;SDS011;44109;52.398;7.024;2022-07-22T13:10:22;3.47;;;1.35;;
58302;SDS011;44109;52.398;7.024;2022-07-22T13:12:52;3.10;;;1.35;;
58302;SDS011;44109;52.398;7.024;2022-07-22T13:15:21;3.80;;;1.10;;
58302;SDS011;44109;52.398;7.024;2022-07-22T13:17:50;2.40;;;1.23;;
58302;SDS011;44109;52.398;7.024;2022-07-22T13:20:18;4.60;;;1.35;;
58302;SDS011;44109;52.398;7.024;2022-07-22T13:22:48;3.55;;;1.13;;
58302;SDS011;44109;52.398;7.024;2022-07-22T13:25:15;3.03;;;1.40;;
58302;SDS011;44109;52.398;7.024;2022-07-22T13:27:44;3.63;;;1.30;;
58302;SDS011;44109;52.398;7.024;2022-07-22T13:30:11;2.20;;;1.13;;
58302;SDS011;44109;52.398;7.024;2022-07-22T13:32:40;4.90;;;1.85;;
58302;SDS011;44109;52.398;7.024;2022-07-22T13:35:08;2.70;;;1.35;;
58302;SDS011;44109;52.398;7.024;2022-07-22T13:37:36;3.50;;;1.50;;
58302;SDS011;44109;52.398;7.024;2022-07-22T13:40:06;3.97;;;1.40;;
58302;SDS011;44109;52.398;7.024;2022-07-22T13:42:35;2.17;;;1.10;;
58302;SDS011;44109;52.398;7.024;2022-07-22T13:45:03;2.90;;;1.30;;
58302;SDS011;44109;52.398;7.024;2022-07-22T13:47:32;3.85;;;2.30;;
58302;SDS011;44109;52.398;7.024;2022-07-22T13:50:00;2.85;;;1.48;;
58302;SDS011;44109;52.398;7.024;2022-07-22T13:52:28;3.20;;;1.15;;
58302;SDS011;44109;52.398;7.024;2022-07-22T13:54:55;2.78;;;1.15;;
58302;SDS011;44109;52.398;7.024;2022-07-22T13:57:24;3.65;;;1.45;;
58302;SDS011;44109;52.398;7.024;2022-07-22T13:59:52;3.90;;;1.48;;
58302;SDS011;44109;52.398;7.024;2022-07-22T14:02:21;3.45;;;1.23;;
58302;SDS011;44109;52.398;7.024;2022-07-22T14:04:49;2.45;;;1.02;;
58302;SDS011;44109;52.398;7.024;2022-07-22T14:07:17;2.60;;;1.55;;
58302;SDS011;44109;52.398;7.024;2022-07-22T14:09:47;3.28;;;1.15;;
58302;SDS011;44109;52.398;7.024;2022-07-22T14:12:15;2.10;;;1.10;;
58302;SDS011;44109;52.398;7.024;2022-07-22T14:14:45;1.63;;;1.10;;
58302;SDS011;44109;52.398;7.024;2022-07-22T14:17:12;2.78;;;1.10;;
58302;SDS011;44109;52.398;7.024;2022-07-22T14:19:40;1.60;;;1.10;;
58302;SDS011;44109;52.398;7.024;2022-07-22T14:22:07;3.20;;;1.33;;
58302;SDS011;44109;52.398;7.024;2022-07-22T14:24:35;3.38;;;1.13;;
58302;SDS011;44109;52.398;7.024;2022-07-22T14:27:02;2.03;;;1.10;;
58302;SDS011;44109;52.398;7.024;2022-07-22T14:29:30;2.60;;;1.13;;
58302;SDS011;44109;52.398;7.024;2022-07-22T14:31:59;3.88;;;1.40;;
58302;SDS011;44109;52.398;7.024;2022-07-22T14:34:26;3.30;;;1.27;;
58302;SDS011;44109;52.398;7.024;2022-07-22T14:36:54;3.35;;;1.17;;
58302;SDS011;44109;52.398;7.024;2022-07-22T14:39:21;2.67;;;1.10;;
58302;SDS011;44109;52.398;7.024;2022-07-22T14:41:49;2.95;;;1.20;;
58302;SDS011;44109;52.398;7.024;2022-07-22T14:44:16;2.65;;;1.10;;
58302;SDS011;44109;52.398;7.024;2022-07-22T14:46:44;2.83;;;1.40;;
58302;SDS011;44109;52.398;7.024;2022-07-22T14:49:13;1.90;;;1.17;;
58302;SDS011;44109;52.398;7.024;2022-07-22T14:51:41;3.15;;;1.50;;
58302;SDS011;44109;52.398;7.024;2022-07-22T14:54:09;2.92;;;1.30;;
58302;SDS011;44109;52.398;7.024;2022-07-22T14:56:37;1.58;;;1.05;;
58302;SDS011;44109;52.398;7.024;2022-07-22T14:59:06;3.42;;;1.20;;
58302;SDS011;44109;52.398;7.024;2022-07-22T15:01:33;3.22;;;1.20;;